sensor_id;sensor_type;location;lat;lon;timestamp;pressure;altitude;pressure_sealevel;temperature;humidity
65880;BME280;52661;51.364;6.054;2023-04-08T00:01:33;101826.19;;;8.66;100.00
65880;BME280;52661;51.364;6.054;2023-04-08T00:03:58;101826.19;;;8.66;100.00
65880;BME280;52661;51.364;6.054;2023-04-08T00:06:24;101823.06;;;8.64;100.00
65880;BME280;52661;51.364;6.054;2023-04-08T00:08:52;101824.69;;;8.68;100.00
65880;BME280;52661;51.364;6.054;2023-04-08T00:11:17;101829.59;;;8.63;100.00
65880;BME280;52661;51.364;6.054;2023-04-08T00:13:43;101835.72;;;8.60;100.00
65880;BME280;52661;51.364;6.054;2023-04-08T00:16:08;101834.66;;;8.64;100.00
65880;BME280;52661;51.364;6.054;2023-04-08T00:18:33;101838.41;;;8.60;100.00
65880;BME280;52661;51.364;6.054;2023-04-08T00:20:59;101831.00;;;8.57;100.00
65880;BME280;52661;51.364;6.054;2023-04-08T00:23:24;101827.22;;;8.46;100.00
65880;BME280;52661;51.364;6.054;2023-04-08T00:25:49;101829.22;;;8.49;100.00
65880;BME280;52661;51.364;6.054;2023-04-08T00:28:15;101826.63;;;8.52;100.00
65880;BME280;52661;51.364;6.054;2023-04-08T00:30:40;101827.66;;;8.48;100.00
65880;BME280;52661;51.364;6.054;2023-04-08T00:33:05;101833.50;;;8.50;100.00
65880;BME280;52661;51.364;6.054;2023-04-08T00:35:32;101837.06;;;8.54;100.00
65880;BME280;52661;51.364;6.054;2023-04-08T00:37:58;101839.25;;;8.48;100.00
65880;BME280;52661;51.364;6.054;2023-04-08T00:40:23;101841.38;;;8.55;100.00
65880;BME280;52661;51.364;6.054;2023-04-08T00:42:48;101837.44;;;8.52;100.00
65880;BME280;52661;51.364;6.054;2023-04-08T00:45:14;101845.09;;;8.50;100.00
65880;BME280;52661;51.364;6.054;2023-04-08T00:47:39;101837.84;;;8.38;100.00
65880;BME280;52661;51.364;6.054;2023-04-08T00:50:07;101842.47;;;8.38;100.00
65880;BME280;52661;51.364;6.054;2023-04-08T00:52:33;101843.00;;;8.44;100.00
65880;BME280;52661;51.364;6.054;2023-04-08T00:54:58;101852.50;;;8.37;100.00
65880;BME280;52661;51.364;6.054;2023-04-08T00:57:23;101845.41;;;8.33;100.00
65880;BME280;52661;51.364;6.054;2023-04-08T00:59:49;101843.50;;;8.33;100.00
65880;BME280;52661;51.364;6.054;2023-04-08T01:04:55;101841.44;;;8.43;100.00
65880;BME280;52661;51.364;6.054;2023-04-08T01:07:31;101847.03;;;8.50;100.00
65880;BME280;52661;51.364;6.054;2023-04-08T01:10:28;101850.72;;;8.57;100.00
65880;BME280;52661;51.364;6.054;2023-04-08T01:12:56;101849.06;;;8.53;100.00
65880;BME280;52661;51.364;6.054;2023-04-08T01:15:25;101845.97;;;8.54;100.00
65880;BME280;52661;51.364;6.054;2023-04-08T01:17:53;101846.59;;;8.48;100.00
65880;BME280;52661;51.364;6.054;2023-04-08T01:20:22;101848.59;;;8.51;100.00
65880;BME280;52661;51.364;6.054;2023-04-08T01:25:31;101845.78;;;8.47;100.00
65880;BME280;52661;51.364;6.054;2023-04-08T01:27:59;101843.28;;;8.54;100.00
65880;BME280;52661;51.364;6.054;2023-04-08T01:30:25;101846.78;;;8.55;100.00
65880;BME280;52661;51.364;6.054;2023-04-08T01:32:53;101841.38;;;8.55;100.00
65880;BME280;52661;51.364;6.054;2023-04-08T01:35:19;101845.09;;;8.50;100.00
65880;BME280;52661;51.364;6.054;2023-04-08T01:37:47;101845.38;;;8.45;100.00
65880;BME280;52661;51.364;6.054;2023-04-08T01:40:14;101849.28;;;8.48;100.00
65880;BME280;52661;51.364;6.054;2023-04-08T01:42:40;101852.34;;;8.46;100.00
65880;BME280;52661;51.364;6.054;2023-04-08T01:45:07;101851.81;;;8.40;100.00
65880;BME280;52661;51.364;6.054;2023-04-08T01:47:34;101855.31;;;8.41;100.00
65880;BME280;52661;51.364;6.054;2023-04-08T01:50:01;101863.31;;;8.37;100.00
65880;BME280;52661;51.364;6.054;2023-04-08T01:52:28;101858.81;;;8.42;100.00
65880;BME280;52661;51.364;6.054;2023-04-08T01:54:54;101856.34;;;8.36;100.00
65880;BME280;52661;51.364;6.054;2023-04-08T01:57:23;101856.00;;;8.38;100.00
65880;BME280;52661;51.364;6.054;2023-04-08T01:59:52;101858.72;;;8.38;100.00
65880;BME280;52661;51.364;6.054;2023-04-08T02:02:21;101862.44;;;8.33;100.00
65880;BME280;52661;51.364;6.054;2023-04-08T02:04:48;101859.41;;;8.35;100.00
65880;BME280;52661;51.364;6.054;2023-04-08T02:07:14;101866.81;;;8.38;100.00
65880;BME280;52661;51.364;6.054;2023-04-08T02:09:39;101871.19;;;8.43;100.00
65880;BME280;52661;51.364;6.054;2023-04-08T02:12:05;101858.91;;;8.45;100.00
65880;BME280;52661;51.364;6.054;2023-04-08T02:14:31;101864.31;;;8.45;100.00
65880;BME280;52661;51.364;6.054;2023-04-08T02:19:29;101861.66;;;8.33;100.00
65880;BME280;52661;51.364;6.054;2023-04-08T02:22:05;101866.25;;;8.32;100.00
65880;BME280;52661;51.364;6.054;2023-04-08T02:24:34;101869.06;;;8.36;100.00
65880;BME280;52661;51.364;6.054;2023-04-08T02:27:02;101871.97;;;8.43;100.00
65880;BME280;52661;51.364;6.054;2023-04-08T02:29:30;101862.63;;;8.40;100.00
65880;BME280;52661;51.364;6.054;2023-04-08T02:31:56;101867.34;;;8.44;100.00
65880;BME280;52661;51.364;6.054;2023-04-08T02:34:22;101862.63;;;8.40;100.00
65880;BME280;52661;51.364;6.054;2023-04-08T02:36:49;101869.94;;;8.40;100.00
65880;BME280;52661;51.364;6.054;2023-04-08T02:39:15;101872.56;;;8.36;100.00
65880;BME280;52661;51.364;6.054;2023-04-08T02:41:41;101870.75;;;8.40;100.00
65880;BME280;52661;51.364;6.054;2023-04-08T02:44:06;101877.13;;;8.48;100.00
65880;BME280;52661;51.364;6.054;2023-04-08T02:46:31;101871.63;;;8.45;100.00
65880;BME280;52661;51.364;6.054;2023-04-08T02:48:57;101883.25;;;8.45;100.00
65880;BME280;52661;51.364;6.054;2023-04-08T02:51:22;101875.13;;;8.45;100.00
65880;BME280;52661;51.364;6.054;2023-04-08T02:53:47;101870.59;;;8.49;100.00
65880;BME280;52661;51.364;6.054;2023-04-08T02:56:13;101874.56;;;8.39;100.00
65880;BME280;52661;51.364;6.054;2023-04-08T02:58:38;101875.03;;;8.42;100.00
65880;BME280;52661;51.364;6.054;2023-04-08T03:01:03;101881.22;;;8.42;100.00
65880;BME280;52661;51.364;6.054;2023-04-08T03:03:29;101877.84;;;8.45;100.00
65880;BME280;52661;51.364;6.054;2023-04-08T03:05:56;101879.31;;;8.43;100.00
65880;BME280;52661;51.364;6.054;2023-04-08T03:08:23;101877.03;;;8.45;100.00
65880;BME280;52661;51.364;6.054;2023-04-08T03:10:49;101880.25;;;8.34;100.00
65880;BME280;52661;51.364;6.054;2023-04-08T03:13:15;101873.03;;;8.38;100.00
65880;BME280;52661;51.364;6.054;2023-04-08T03:15:40;101877.38;;;8.43;100.00
65880;BME280;52661;51.364;6.054;2023-04-08T03:18:06;101873.91;;;8.43;100.00
65880;BME280;52661;51.364;6.054;2023-04-08T03:20:31;101871.88;;;8.39;100.00
65880;BME280;52661;51.364;6.054;2023-04-08T03:22:56;101872.84;;;8.47;100.00
65880;BME280;52661;51.364;6.054;2023-04-08T03:25:22;101867.09;;;8.49;100.00
65880;BME280;52661;51.364;6.054;2023-04-08T03:27:47;101871.97;;;8.43;100.00
65880;BME280;52661;51.364;6.054;2023-04-08T03:30:12;101879.84;;;8.48;100.00
65880;BME280;52661;51.364;6.054;2023-04-08T03:32:37;101866.66;;;8.47;100.00
65880;BME280;52661;51.364;6.054;2023-04-08T03:35:04;101863.19;;;8.46;100.00
65880;BME280;52661;51.364;6.054;2023-04-08T03:37:30;101869.72;;;8.45;100.00
65880;BME280;52661;51.364;6.054;2023-04-08T03:39:55;101869.03;;;8.48;100.00
65880;BME280;52661;51.364;6.054;2023-04-08T03:42:21;101862.41;;;8.46;100.00
65880;BME280;52661;51.364;6.054;2023-04-08T03:44:46;101874.25;;;8.41;100.00
65880;BME280;52661;51.364;6.054;2023-04-08T03:47:11;101881.03;;;8.35;100.00
65880;BME280;52661;51.364;6.054;2023-04-08T03:49:37;101873.94;;;8.30;100.00
65880;BME280;52661;51.364;6.054;2023-04-08T03:52:02;101876.53;;;8.39;100.00
65880;BME280;52661;51.364;6.054;2023-04-08T03:54:27;101879.22;;;8.39;100.00
65880;BME280;52661;51.364;6.054;2023-04-08T03:56:53;101881.03;;;8.35;100.00
65880;BME280;52661;51.364;6.054;2023-04-08T03:59:18;101890.81;;;8.39;100.00
65880;BME280;52661;51.364;6.054;2023-04-08T04:01:43;101886.53;;;8.38;100.00
65880;BME280;52661;51.364;6.054;2023-04-08T04:04:09;101890.97;;;8.31;100.00
65880;BME280;52661;51.364;6.054;2023-04-08T04:06:34;101889.50;;;8.33;100.00
65880;BME280;52661;51.364;6.054;2023-04-08T04:08:59;101884.19;;;8.37;100.00
65880;BME280;52661;51.364;6.054;2023-04-08T04:11:25;101890.47;;;8.41;100.00
65880;BME280;52661;51.364;6.054;2023-04-08T04:13:51;101898.06;;;8.35;100.00
65880;BME280;52661;51.364;6.054;2023-04-08T04:16:16;101888.56;;;8.42;100.00
65880;BME280;52661;51.364;6.054;2023-04-08T04:18:41;101899.72;;;8.40;100.00
65880;BME280;52661;51.364;6.054;2023-04-08T04:21:07;101898.16;;;8.39;100.00
65880;BME280;52661;51.364;6.054;2023-04-08T04:23:33;101907.50;;;8.42;100.00
65880;BME280;52661;51.364;6.054;2023-04-08T04:25:58;101907.31;;;8.34;100.00
65880;BME280;52661;51.364;6.054;2023-04-08T04:28:23;101909.91;;;8.31;100.00
65880;BME280;52661;51.364;6.054;2023-04-08T04:30:49;101909.13;;;8.30;100.00
65880;BME280;52661;51.364;6.054;2023-04-08T04:33:14;101911.03;;;8.30;100.00
65880;BME280;52661;51.364;6.054;2023-04-08T04:35:39;101913.72;;;8.30;100.00
65880;BME280;52661;51.364;6.054;2023-04-08T04:38:05;101917.34;;;8.34;100.00
65880;BME280;52661;51.364;6.054;2023-04-08T04:40:35;101917.66;;;8.32;100.00
65880;BME280;52661;51.364;6.054;2023-04-08T04:43:01;101918.03;;;8.31;100.00
65880;BME280;52661;51.364;6.054;2023-04-08T04:45:26;101916.09;;;8.31;100.00
65880;BME280;52661;51.364;6.054;2023-04-08T04:47:51;101921.94;;;8.33;100.00
65880;BME280;52661;51.364;6.054;2023-04-08T04:50:17;101918.13;;;8.34;100.00
65880;BME280;52661;51.364;6.054;2023-04-08T04:52:42;101924.66;;;8.33;100.00
65880;BME280;52661;51.364;6.054;2023-04-08T04:55:08;101930.84;;;8.34;100.00
65880;BME280;52661;51.364;6.054;2023-04-08T04:57:33;101936.59;;;8.32;100.00
65880;BME280;52661;51.364;6.054;2023-04-08T04:59:58;101936.59;;;8.32;100.00
65880;BME280;52661;51.364;6.054;2023-04-08T05:02:24;101934.59;;;8.29;100.00
65880;BME280;52661;51.364;6.054;2023-04-08T05:04:49;101937.16;;;8.26;100.00
65880;BME280;52661;51.364;6.054;2023-04-08T05:07:17;101944.03;;;8.23;100.00
65880;BME280;52661;51.364;6.054;2023-04-08T05:09:42;101938.06;;;8.18;100.00
65880;BME280;52661;51.364;6.054;2023-04-08T05:12:08;101941.78;;;8.25;100.00
65880;BME280;52661;51.364;6.054;2023-04-08T05:14:33;101944.03;;;8.23;100.00
65880;BME280;52661;51.364;6.054;2023-04-08T05:16:58;101946.66;;;8.20;100.00
65880;BME280;52661;51.364;6.054;2023-04-08T05:19:24;101957.47;;;8.20;100.00
65880;BME280;52661;51.364;6.054;2023-04-08T05:21:49;101950.72;;;8.14;100.00
65880;BME280;52661;51.364;6.054;2023-04-08T05:24:14;101954.56;;;8.13;100.00
65880;BME280;52661;51.364;6.054;2023-04-08T05:26:40;101962.41;;;8.18;100.00
65880;BME280;52661;51.364;6.054;2023-04-08T05:29:05;101954.41;;;8.21;100.00
65880;BME280;52661;51.364;6.054;2023-04-08T05:31:31;101961.84;;;8.24;100.00
65880;BME280;52661;51.364;6.054;2023-04-08T05:33:56;101954.50;;;8.25;100.00
65880;BME280;52661;51.364;6.054;2023-04-08T05:36:21;101969.63;;;8.26;100.00
65880;BME280;52661;51.364;6.054;2023-04-08T05:38:46;101970.63;;;8.33;100.00
65880;BME280;52661;51.364;6.054;2023-04-08T05:41:12;101969.84;;;8.33;100.00
65880;BME280;52661;51.364;6.054;2023-04-08T05:43:38;101973.56;;;8.28;100.00
65880;BME280;52661;51.364;6.054;2023-04-08T05:46:07;101971.66;;;8.29;100.00
65880;BME280;52661;51.364;6.054;2023-04-08T05:48:32;101975.94;;;8.30;100.00
65880;BME280;52661;51.364;6.054;2023-04-08T05:50:58;101970.88;;;8.28;100.00
65880;BME280;52661;51.364;6.054;2023-04-08T05:53:23;101976.84;;;8.34;100.00
65880;BME280;52661;51.364;6.054;2023-04-08T05:55:49;101984.63;;;8.35;100.00
65880;BME280;52661;51.364;6.054;2023-04-08T05:58:14;101977.41;;;8.27;100.00
65880;BME280;52661;51.364;6.054;2023-04-08T06:00:40;101984.38;;;8.28;100.00
65880;BME280;52661;51.364;6.054;2023-04-08T06:03:05;101989.81;;;8.28;100.00
65880;BME280;52661;51.364;6.054;2023-04-08T06:05:30;101988.69;;;8.29;100.00
65880;BME280;52661;51.364;6.054;2023-04-08T06:07:56;101982.94;;;8.31;100.00
65880;BME280;52661;51.364;6.054;2023-04-08T06:10:21;101992.75;;;8.35;100.00
65880;BME280;52661;51.364;6.054;2023-04-08T06:12:47;101986.88;;;8.33;100.00
65880;BME280;52661;51.364;6.054;2023-04-08T06:15:12;101986.66;;;8.38;100.00
65880;BME280;52661;51.364;6.054;2023-04-08T06:17:38;101989.88;;;8.44;100.00
65880;BME280;52661;51.364;6.054;2023-04-08T06:20:05;101996.31;;;8.39;100.00
65880;BME280;52661;51.364;6.054;2023-04-08T06:22:30;101997.91;;;8.40;100.00
65880;BME280;52661;51.364;6.054;2023-04-08T06:24:56;102001.50;;;8.45;100.00
65880;BME280;52661;51.364;6.054;2023-04-08T06:27:21;102004.91;;;8.42;100.00
65880;BME280;52661;51.364;6.054;2023-04-08T06:29:46;102009.84;;;8.39;100.00
65880;BME280;52661;51.364;6.054;2023-04-08T06:32:12;102012.00;;;8.34;100.00
65880;BME280;52661;51.364;6.054;2023-04-08T06:34:38;102014.38;;;8.35;100.00
65880;BME280;52661;51.364;6.054;2023-04-08T06:37:04;102014.13;;;8.40;100.00
65880;BME280;52661;51.364;6.054;2023-04-08T06:39:30;102017.97;;;8.39;100.00
65880;BME280;52661;51.364;6.054;2023-04-08T06:41:55;102022.81;;;8.46;100.00
65880;BME280;52661;51.364;6.054;2023-04-08T06:44:22;102018.97;;;8.47;100.00
65880;BME280;52661;51.364;6.054;2023-04-08T06:46:47;102020.09;;;8.46;100.00
65880;BME280;52661;51.364;6.054;2023-04-08T06:49:12;102026.75;;;8.49;100.00
65880;BME280;52661;51.364;6.054;2023-04-08T06:51:38;102020.75;;;8.55;100.00
65880;BME280;52661;51.364;6.054;2023-04-08T06:54:03;102029.88;;;8.51;100.00
65880;BME280;52661;51.364;6.054;2023-04-08T06:56:28;102034.19;;;8.52;100.00
65880;BME280;52661;51.364;6.054;2023-04-08T06:58:54;102031.03;;;8.50;100.00
65880;BME280;52661;51.364;6.054;2023-04-08T07:01:19;102030.78;;;8.55;100.00
65880;BME280;52661;51.364;6.054;2023-04-08T07:03:45;102032.69;;;8.54;100.00
65880;BME280;52661;51.364;6.054;2023-04-08T07:06:10;102042.84;;;8.57;100.00
65880;BME280;52661;51.364;6.054;2023-04-08T07:08:35;102044.09;;;8.60;100.00
65880;BME280;52661;51.364;6.054;2023-04-08T07:11:01;102056.72;;;8.56;100.00
65880;BME280;52661;51.364;6.054;2023-04-08T07:13:27;102055.13;;;8.55;100.00
65880;BME280;52661;51.364;6.054;2023-04-08T07:15:53;102058.31;;;8.57;100.00
65880;BME280;52661;51.364;6.054;2023-04-08T07:18:18;102062.22;;;8.59;100.00
65880;BME280;52661;51.364;6.054;2023-04-08T07:20:49;102058.63;;;8.55;100.00
65880;BME280;52661;51.364;6.054;2023-04-08T07:23:15;102059.31;;;8.52;100.00
65880;BME280;52661;51.364;6.054;2023-04-08T07:25:40;102057.72;;;8.51;100.00
65880;BME280;52661;51.364;6.054;2023-04-08T07:28:06;102066.44;;;8.45;100.00
65880;BME280;52661;51.364;6.054;2023-04-08T07:30:31;102069.81;;;8.42;100.00
65880;BME280;52661;51.364;6.054;2023-04-08T07:32:56;102079.75;;;8.37;100.00
65880;BME280;52661;51.364;6.054;2023-04-08T07:35:22;102069.47;;;8.43;100.00
65880;BME280;52661;51.364;6.054;2023-04-08T07:37:49;102075.78;;;8.47;100.00
65880;BME280;52661;51.364;6.054;2023-04-08T07:40:15;102068.13;;;8.49;100.00
65880;BME280;52661;51.364;6.054;2023-04-08T07:42:41;102074.31;;;8.50;100.00
65880;BME280;52661;51.364;6.054;2023-04-08T07:45:06;102071.94;;;8.48;100.00
65880;BME280;52661;51.364;6.054;2023-04-08T07:47:32;102080.19;;;8.52;100.00
65880;BME280;52661;51.364;6.054;2023-04-08T07:49:57;102079.50;;;8.55;100.00
65880;BME280;52661;51.364;6.054;2023-04-08T07:52:22;102074.28;;;8.62;100.00
65880;BME280;52661;51.364;6.054;2023-04-08T07:54:48;102075.19;;;8.66;100.00
65880;BME280;52661;51.364;6.054;2023-04-08T07:57:13;102085.44;;;8.72;100.00
65880;BME280;52661;51.364;6.054;2023-04-08T07:59:38;102084.09;;;8.66;100.00
65880;BME280;52661;51.364;6.054;2023-04-08T08:02:04;102084.31;;;8.73;100.00
65880;BME280;52661;51.364;6.054;2023-04-08T08:04:30;102085.19;;;8.77;100.00
65880;BME280;52661;51.364;6.054;2023-04-08T08:06:55;102096.03;;;8.77;100.00
65880;BME280;52661;51.364;6.054;2023-04-08T08:09:21;102098.16;;;8.84;100.00
65880;BME280;52661;51.364;6.054;2023-04-08T08:11:46;102100.38;;;8.94;100.00
65880;BME280;52661;51.364;6.054;2023-04-08T08:14:12;102104.56;;;8.92;100.00
65880;BME280;52661;51.364;6.054;2023-04-08T08:16:38;102094.41;;;8.88;100.00
65880;BME280;52661;51.364;6.054;2023-04-08T08:19:03;102100.13;;;8.99;100.00
65880;BME280;52661;51.364;6.054;2023-04-08T08:21:31;102101.72;;;9.00;100.00
65880;BME280;52661;51.364;6.054;2023-04-08T08:23:57;102102.16;;;9.02;100.00
65880;BME280;52661;51.364;6.054;2023-04-08T08:26:24;102104.06;;;9.02;100.00
65880;BME280;52661;51.364;6.054;2023-04-08T08:28:49;102111.97;;;9.07;100.00
65880;BME280;52661;51.364;6.054;2023-04-08T08:31:14;102112.16;;;9.14;100.00
65880;BME280;52661;51.364;6.054;2023-04-08T08:33:40;102122.94;;;8.98;100.00
65880;BME280;52661;51.364;6.054;2023-04-08T08:36:05;102120.31;;;9.02;100.00
65880;BME280;52661;51.364;6.054;2023-04-08T08:38:31;102117.50;;;8.98;100.00
65880;BME280;52661;51.364;6.054;2023-04-08T08:40:57;102124.03;;;9.09;100.00
65880;BME280;52661;51.364;6.054;2023-04-08T08:43:26;102129.44;;;9.09;100.00
65880;BME280;52661;51.364;6.054;2023-04-08T08:45:53;102132.94;;;9.10;100.00
65880;BME280;52661;51.364;6.054;2023-04-08T08:48:19;102128.81;;;9.00;100.00
65880;BME280;52661;51.364;6.054;2023-04-08T08:50:44;102129.94;;;8.99;100.00
65880;BME280;52661;51.364;6.054;2023-04-08T08:53:10;102134.78;;;8.94;100.00
65880;BME280;52661;51.364;6.054;2023-04-08T08:55:35;102132.94;;;9.10;100.00
65880;BME280;52661;51.364;6.054;2023-04-08T08:58:02;102131.72;;;9.07;100.00
65880;BME280;52661;51.364;6.054;2023-04-08T09:00:41;102136.50;;;9.26;100.00
65880;BME280;52661;51.364;6.054;2023-04-08T09:03:16;102137.06;;;9.19;100.00
65880;BME280;52661;51.364;6.054;2023-04-08T09:05:50;102139.28;;;9.02;100.00
65880;BME280;52661;51.364;6.054;2023-04-08T09:08:30;102139.97;;;8.99;100.00
65880;BME280;52661;51.364;6.054;2023-04-08T09:13:38;102149.00;;;8.90;100.00
65880;BME280;52661;51.364;6.054;2023-04-08T09:16:05;102154.50;;;9.06;100.00
65880;BME280;52661;51.364;6.054;2023-04-08T09:18:32;102148.41;;;9.09;100.00
65880;BME280;52661;51.364;6.054;2023-04-08T09:20:59;102152.09;;;9.17;100.00
65880;BME280;52661;51.364;6.054;2023-04-08T09:23:56;102153.50;;;9.11;100.00
65880;BME280;52661;51.364;6.054;2023-04-08T09:26:23;102155.91;;;8.88;100.00
65880;BME280;52661;51.364;6.054;2023-04-08T09:29:02;102166.72;;;8.88;100.00
65880;BME280;52661;51.364;6.054;2023-04-08T09:31:33;102168.53;;;8.84;100.00
65880;BME280;52661;51.364;6.054;2023-04-08T09:34:08;102173.38;;;8.90;100.00
65880;BME280;52661;51.364;6.054;2023-04-08T09:36:34;102174.38;;;8.98;100.00
65880;BME280;52661;51.364;6.054;2023-04-08T09:39:00;102180.47;;;8.95;100.00
65880;BME280;52661;51.364;6.054;2023-04-08T09:41:27;102175.41;;;8.94;100.00
65880;BME280;52661;51.364;6.054;2023-04-08T09:43:53;102174.16;;;8.91;100.00
65880;BME280;52661;51.364;6.054;2023-04-08T09:46:50;102180.03;;;8.93;100.00
65880;BME280;52661;51.364;6.054;2023-04-08T09:49:49;102177.19;;;9.02;100.00
65880;BME280;52661;51.364;6.054;2023-04-08T09:52:38;102177.22;;;8.89;100.00
65880;BME280;52661;51.364;6.054;2023-04-08T09:55:08;102171.13;;;8.80;100.00
65880;BME280;52661;51.364;6.054;2023-04-08T09:57:40;102175.06;;;8.95;100.00
65880;BME280;52661;51.364;6.054;2023-04-08T10:00:07;102177.97;;;9.02;100.00
65880;BME280;52661;51.364;6.054;2023-04-08T10:02:41;102168.16;;;9.10;100.00
65880;BME280;52661;51.364;6.054;2023-04-08T10:05:11;102165.84;;;9.24;100.00
65880;BME280;52661;51.364;6.054;2023-04-08T10:07:38;102168.66;;;9.27;100.00
65880;BME280;52661;51.364;6.054;2023-04-08T10:10:04;102167.63;;;9.32;100.00
65880;BME280;52661;51.364;6.054;2023-04-08T10:12:30;102161.63;;;9.38;100.00
65880;BME280;52661;51.364;6.054;2023-04-08T10:17:46;102155.22;;;9.31;100.00
65880;BME280;52661;51.364;6.054;2023-04-08T10:22:58;102158.91;;;9.38;100.00
65880;BME280;52661;51.364;6.054;2023-04-08T10:25:31;102164.63;;;9.49;100.00
65880;BME280;52661;51.364;6.054;2023-04-08T10:27:58;102170.44;;;9.63;100.00
65880;BME280;52661;51.364;6.054;2023-04-08T10:32:56;102165.84;;;9.52;100.00
65880;BME280;52661;51.364;6.054;2023-04-08T10:35:36;102169.06;;;9.69;100.00
65880;BME280;52661;51.364;6.054;2023-04-08T10:38:02;102169.34;;;9.80;100.00
65880;BME280;52661;51.364;6.054;2023-04-08T10:40:28;102161.53;;;9.78;100.00
65880;BME280;52661;51.364;6.054;2023-04-08T10:42:57;102162.09;;;10.00;100.00
65880;BME280;52661;51.364;6.054;2023-04-08T10:45:23;102159.22;;;10.08;100.00
65880;BME280;52661;51.364;6.054;2023-04-08T10:47:49;102162.94;;;10.16;100.00
65880;BME280;52661;51.364;6.054;2023-04-08T10:50:16;102170.09;;;10.24;100.00
65880;BME280;52661;51.364;6.054;2023-04-08T10:52:46;102161.28;;;10.27;100.00
65880;BME280;52661;51.364;6.054;2023-04-08T10:55:11;102162.91;;;10.31;100.00
65880;BME280;52661;51.364;6.054;2023-04-08T10:57:37;102161.31;;;10.62;100.00
65880;BME280;52661;51.364;6.054;2023-04-08T11:00:04;102159.66;;;10.57;100.00
65880;BME280;52661;51.364;6.054;2023-04-08T11:02:33;102165.78;;;10.38;100.00
65880;BME280;52661;51.364;6.054;2023-04-08T11:05:01;102162.50;;;10.29;100.00
65880;BME280;52661;51.364;6.054;2023-04-08T11:07:27;102161.06;;;10.35;100.00
65880;BME280;52661;51.364;6.054;2023-04-08T11:09:52;102160.19;;;10.63;100.00
65880;BME280;52661;51.364;6.054;2023-04-08T11:12:19;102155.94;;;10.81;100.00
65880;BME280;52661;51.364;6.054;2023-04-08T11:14:45;102151.66;;;10.99;100.00
65880;BME280;52661;51.364;6.054;2023-04-08T11:17:13;102154.09;;;11.04;100.00
65880;BME280;52661;51.364;6.054;2023-04-08T11:19:40;102150.38;;;11.12;100.00
65880;BME280;52661;51.364;6.054;2023-04-08T11:22:07;102148.81;;;11.11;100.00
65880;BME280;52661;51.364;6.054;2023-04-08T11:24:34;102148.66;;;11.04;100.00
65880;BME280;52661;51.364;6.054;2023-04-08T11:27:02;102139.72;;;10.84;100.00
65880;BME280;52661;51.364;6.054;2023-04-08T11:29:28;102140.97;;;10.71;100.00
65880;BME280;52661;51.364;6.054;2023-04-08T11:31:55;102146.16;;;10.96;100.00
65880;BME280;52661;51.364;6.054;2023-04-08T11:34:21;102146.09;;;11.30;100.00
65880;BME280;52661;51.364;6.054;2023-04-08T11:36:47;102149.75;;;11.57;100.00
65880;BME280;52661;51.364;6.054;2023-04-08T11:39:12;102152.09;;;11.78;100.00
65880;BME280;52661;51.364;6.054;2023-04-08T11:41:38;102154.38;;;11.76;100.00
65880;BME280;52661;51.364;6.054;2023-04-08T11:44:04;102145.25;;;11.88;100.00
65880;BME280;52661;51.364;6.054;2023-04-08T11:46:31;102148.88;;;11.95;100.00
65880;BME280;52661;51.364;6.054;2023-04-08T11:49:06;102145.25;;;11.68;100.00
65880;BME280;52661;51.364;6.054;2023-04-08T11:51:34;102151.66;;;11.57;100.00
65880;BME280;52661;51.364;6.054;2023-04-08T11:54:03;102151.09;;;11.48;100.00
65880;BME280;52661;51.364;6.054;2023-04-08T11:56:30;102152.09;;;11.78;100.00
65880;BME280;52661;51.364;6.054;2023-04-08T11:58:57;102151.41;;;11.65;100.00
65880;BME280;52661;51.364;6.054;2023-04-08T12:01:23;102160.66;;;11.80;100.00
65880;BME280;52661;51.364;6.054;2023-04-08T12:03:58;102150.75;;;11.91;100.00
65880;BME280;52661;51.364;6.054;2023-04-08T12:06:24;102155.53;;;11.75;100.00
65880;BME280;52661;51.364;6.054;2023-04-08T12:08:51;102153.28;;;11.80;100.00
65880;BME280;52661;51.364;6.054;2023-04-08T12:11:17;102148.81;;;11.92;100.00
65880;BME280;52661;51.364;6.054;2023-04-08T12:13:42;102155.91;;;11.96;100.00
65880;BME280;52661;51.364;6.054;2023-04-08T12:16:07;102146.78;;;11.85;100.00
65880;BME280;52661;51.364;6.054;2023-04-08T12:18:33;102154.06;;;11.81;100.00
65880;BME280;52661;51.364;6.054;2023-04-08T12:20:58;102149.50;;;11.85;100.00
65880;BME280;52661;51.364;6.054;2023-04-08T12:23:23;102144.97;;;11.93;100.00
65880;BME280;52661;51.364;6.054;2023-04-08T12:25:57;102144.84;;;11.86;100.00
65880;BME280;52661;51.364;6.054;2023-04-08T12:28:23;102134.72;;;12.09;100.00
65880;BME280;52661;51.364;6.054;2023-04-08T12:30:48;102142.66;;;12.17;100.00
65880;BME280;52661;51.364;6.054;2023-04-08T12:33:14;102140.53;;;12.07;100.00
65880;BME280;52661;51.364;6.054;2023-04-08T12:35:39;102140.84;;;12.02;100.00
65880;BME280;52661;51.364;6.054;2023-04-08T12:38:05;102141.84;;;11.94;100.00
65880;BME280;52661;51.364;6.054;2023-04-08T12:40:30;102131.81;;;11.98;100.00
65880;BME280;52661;51.364;6.054;2023-04-08T12:42:56;102135.34;;;11.99;100.00
65880;BME280;52661;51.364;6.054;2023-04-08T12:45:21;102138.78;;;11.96;100.00
65880;BME280;52661;51.364;6.054;2023-04-08T12:47:46;102143.44;;;11.95;100.00
65880;BME280;52661;51.364;6.054;2023-04-08T12:50:12;102143.25;;;11.84;100.00
65880;BME280;52661;51.364;6.054;2023-04-08T12:52:37;102143.25;;;11.84;100.00
65880;BME280;52661;51.364;6.054;2023-04-08T12:55:03;102139.63;;;11.77;100.00
65880;BME280;52661;51.364;6.054;2023-04-08T12:57:29;102143.69;;;11.67;100.00
65880;BME280;52661;51.364;6.054;2023-04-08T12:59:56;102146.72;;;11.62;100.00
65880;BME280;52661;51.364;6.054;2023-04-08T13:02:21;102136.56;;;11.59;100.00
65880;BME280;52661;51.364;6.054;2023-04-08T13:04:46;102146.72;;;11.62;100.00